createdAt,value
2023-02-12T00:01:39.077Z,10.57
2023-02-12T00:04:07.783Z,8.90
2023-02-12T00:06:36.440Z,10.90
2023-02-12T00:09:04.943Z,10.10
2023-02-12T00:11:33.335Z,9.50
2023-02-12T00:14:05.636Z,9.33
2023-02-12T00:16:35.432Z,8.97
2023-02-12T00:19:03.795Z,9.30
2023-02-12T00:21:32.179Z,9.07
2023-02-12T00:24:00.593Z,10.70
2023-02-12T00:26:29.554Z,9.17
2023-02-12T00:28:58.177Z,10.17
2023-02-12T00:31:29.355Z,8.97
2023-02-12T00:34:01.127Z,9.27
2023-02-12T00:36:32.414Z,9.07
2023-02-12T00:39:01.835Z,9.70
2023-02-12T00:41:30.930Z,10.00
2023-02-12T00:43:59.317Z,9.70
2023-02-12T00:46:28.308Z,11.10
2023-02-12T00:48:58.015Z,10.23
2023-02-12T00:51:26.383Z,10.97
2023-02-12T00:53:55.010Z,10.23
2023-02-12T00:56:23.426Z,12.33
2023-02-12T00:58:51.905Z,11.60
2023-02-12T01:01:20.750Z,12.87
2023-02-12T01:03:49.292Z,11.23
2023-02-12T01:06:18.954Z,11.90
2023-02-12T01:08:52.655Z,10.50
2023-02-12T01:11:21.612Z,11.60
2023-02-12T01:13:50.398Z,10.40
2023-02-12T01:16:22.934Z,11.50
2023-02-12T01:18:55.682Z,10.00
2023-02-12T01:21:29.100Z,10.70
2023-02-12T01:23:57.676Z,10.97
2023-02-12T01:26:27.504Z,10.17
2023-02-12T01:28:58.705Z,11.23
2023-02-12T01:31:30.802Z,11.17
2023-02-12T01:34:01.717Z,9.73
2023-02-12T01:36:32.723Z,10.70
2023-02-12T01:39:03.031Z,9.80
2023-02-12T01:41:34.800Z,9.50
2023-02-12T01:44:13.753Z,9.87
2023-02-12T01:46:44.076Z,8.80
2023-02-12T01:49:19.374Z,10.10
2023-02-12T01:51:55.041Z,9.53
2023-02-12T01:54:26.775Z,9.03
2023-02-12T01:56:55.758Z,10.60
2023-02-12T01:59:25.109Z,10.87
2023-02-12T02:01:56.063Z,12.40
2023-02-12T02:04:30.291Z,10.83
2023-02-12T02:07:03.139Z,11.67
2023-02-12T02:09:35.860Z,11.50
2023-02-12T02:12:22.464Z,10.73
2023-02-12T02:14:53.685Z,11.23
2023-02-12T02:17:40.407Z,10.60
2023-02-12T02:20:43.867Z,9.97
2023-02-12T02:23:53.238Z,10.37
2023-02-12T02:26:55.668Z,10.03
2023-02-12T02:30:14.900Z,11.43
2023-02-12T02:32:56.453Z,9.80
2023-02-12T02:35:33.863Z,10.80
2023-02-12T02:38:19.202Z,9.53
2023-02-12T02:40:55.961Z,10.33
2023-02-12T02:43:31.959Z,11.10
2023-02-12T02:46:07.141Z,12.00
2023-02-12T02:48:40.014Z,10.73
2023-02-12T02:51:14.303Z,10.03
2023-02-12T02:53:48.273Z,9.90
2023-02-12T02:56:21.211Z,10.00
2023-02-12T02:58:54.453Z,10.50
2023-02-12T03:01:28.257Z,12.40
2023-02-12T03:04:04.556Z,11.53
2023-02-12T03:06:40.297Z,11.00
2023-02-12T03:09:20.440Z,12.20
2023-02-12T03:11:50.973Z,11.83
2023-02-12T03:14:23.425Z,11.33
2023-02-12T03:16:58.565Z,12.40
2023-02-12T03:19:34.339Z,10.70
2023-02-12T03:22:07.241Z,11.03
2023-02-12T03:24:40.030Z,11.70
2023-02-12T03:27:13.854Z,10.40
2023-02-12T03:29:42.411Z,11.10
2023-02-12T03:32:25.051Z,11.10
2023-02-12T03:35:07.844Z,11.10
2023-02-12T03:37:41.776Z,12.07
2023-02-12T03:40:18.718Z,11.77
2023-02-12T03:42:56.424Z,12.93
2023-02-12T03:45:39.544Z,11.50
2023-02-12T03:48:14.146Z,12.67
2023-02-12T03:50:52.708Z,12.10
2023-02-12T03:53:21.291Z,10.63
2023-02-12T03:55:58.021Z,10.90
2023-02-12T03:58:30.537Z,11.60
2023-02-12T04:00:59.852Z,11.87
2023-02-12T04:03:28.455Z,11.60
2023-02-12T04:05:58.222Z,10.63
2023-02-12T04:08:28.601Z,11.80
2023-02-12T04:11:08.921Z,12.63
2023-02-12T04:13:50.994Z,11.83
2023-02-12T04:16:26.564Z,11.03
2023-02-12T04:18:55.616Z,11.57
2023-02-12T04:21:44.315Z,12.13
2023-02-12T04:24:20.109Z,11.37
2023-02-12T04:26:55.940Z,12.67
2023-02-12T04:29:33.368Z,12.40
2023-02-12T04:32:11.608Z,10.87
2023-02-12T04:34:48.242Z,11.63
2023-02-12T04:37:22.187Z,12.27
2023-02-12T04:39:53.158Z,12.43
2023-02-12T04:42:21.756Z,11.60
2023-02-12T04:44:50.095Z,11.70
2023-02-12T04:47:18.621Z,11.73
2023-02-12T04:49:46.954Z,12.53
2023-02-12T04:52:15.371Z,11.67
2023-02-12T04:54:45.165Z,12.03
2023-02-12T04:57:13.534Z,11.77
2023-02-12T04:59:41.977Z,10.97
2023-02-12T05:02:10.591Z,12.03
2023-02-12T05:04:38.916Z,11.87
2023-02-12T05:07:07.464Z,12.30
2023-02-12T05:09:35.844Z,12.67
2023-02-12T05:12:05.951Z,11.77
2023-02-12T05:14:34.312Z,12.30
2023-02-12T05:17:02.673Z,12.13
2023-02-12T05:19:31.117Z,11.60
2023-02-12T05:21:59.512Z,11.20
2023-02-12T05:24:28.106Z,11.20
2023-02-12T05:26:56.438Z,11.90
2023-02-12T05:29:26.144Z,11.50
2023-02-12T05:31:54.586Z,10.77
2023-02-12T05:34:23.211Z,11.60
2023-02-12T05:36:51.552Z,11.77
2023-02-12T05:39:19.962Z,12.57
2023-02-12T05:41:48.448Z,11.43
2023-02-12T05:44:17.060Z,11.20
2023-02-12T05:46:46.804Z,12.00
2023-02-12T05:49:15.239Z,12.40
2023-02-12T05:51:43.745Z,11.47
2023-02-12T05:54:12.322Z,10.80
2023-02-12T05:56:46.982Z,11.00
2023-02-12T05:59:18.515Z,12.30
2023-02-12T06:01:51.120Z,12.37
2023-02-12T06:04:23.746Z,10.70
2023-02-12T06:06:52.397Z,10.83
2023-02-12T06:09:21.422Z,11.10
2023-02-12T06:11:50.311Z,11.90
2023-02-12T06:14:21.089Z,11.57
2023-02-12T06:16:53.058Z,10.77
2023-02-12T06:19:22.144Z,10.27
2023-02-12T06:21:50.484Z,12.07
2023-02-12T06:24:19.465Z,11.53
2023-02-12T06:26:51.810Z,11.13
2023-02-12T06:29:21.141Z,11.73
2023-02-12T06:31:51.358Z,11.87
2023-02-12T06:34:19.785Z,10.87
2023-02-12T06:36:49.285Z,10.67
2023-02-12T06:39:18.546Z,11.83
2023-02-12T06:41:46.893Z,10.80
2023-02-12T06:44:16.105Z,10.20
2023-02-12T06:46:44.555Z,11.60
2023-02-12T06:49:16.242Z,11.17
2023-02-12T06:51:44.681Z,11.10
2023-02-12T06:54:15.756Z,11.00
2023-02-12T06:56:44.451Z,10.20
2023-02-12T06:59:16.790Z,11.40
2023-02-12T07:01:45.676Z,10.50
2023-02-12T07:04:15.591Z,10.80
2023-02-12T07:06:44.120Z,11.60
2023-02-12T07:09:12.561Z,11.30
2023-02-12T07:11:40.857Z,9.77
2023-02-12T07:14:09.285Z,10.23
2023-02-12T07:16:37.670Z,10.83
2023-02-12T07:19:06.007Z,11.10
2023-02-12T07:21:35.628Z,10.13
2023-02-12T07:24:04.195Z,9.83
2023-02-12T07:26:32.620Z,10.77
2023-02-12T07:29:00.926Z,10.83
2023-02-12T07:31:29.420Z,9.90
2023-02-12T07:34:00.085Z,10.97
2023-02-12T07:36:31.716Z,10.10
2023-02-12T07:39:02.103Z,10.00
2023-02-12T07:41:32.524Z,9.07
2023-02-12T07:44:06.772Z,9.07
2023-02-12T07:46:37.668Z,9.43
2023-02-12T07:49:08.118Z,8.50
2023-02-12T07:51:38.002Z,9.47
2023-02-12T07:54:07.956Z,9.20
2023-02-12T07:56:39.031Z,9.30
2023-02-12T07:59:11.415Z,8.67
2023-02-12T08:01:42.863Z,9.13
2023-02-12T08:04:14.338Z,8.63
2023-02-12T08:06:44.683Z,9.47
2023-02-12T08:09:18.277Z,8.77
2023-02-12T08:11:46.934Z,8.30
2023-02-12T08:14:19.266Z,8.87
2023-02-12T08:16:49.827Z,8.67
2023-02-12T08:19:22.552Z,8.70
2023-02-12T08:21:54.238Z,8.10
2023-02-12T08:24:24.551Z,7.80
2023-02-12T08:26:53.798Z,8.23
2023-02-12T08:29:25.202Z,8.30
2023-02-12T08:31:59.553Z,8.27
2023-02-12T08:34:30.968Z,7.87
2023-02-12T08:37:00.155Z,8.10
2023-02-12T08:39:31.901Z,6.87
2023-02-12T08:42:01.692Z,8.20
2023-02-12T08:44:30.819Z,7.60
2023-02-12T08:46:59.268Z,8.00
2023-02-12T08:49:32.412Z,7.90
2023-02-12T08:52:02.619Z,6.73
2023-02-12T08:54:33.523Z,7.50
2023-02-12T08:57:03.675Z,8.60
2023-02-12T08:59:32.492Z,8.73
2023-02-12T09:02:01.910Z,8.37
2023-02-12T09:04:31.113Z,7.90
2023-02-12T09:06:59.763Z,7.60
2023-02-12T09:09:28.381Z,7.93
2023-02-12T09:11:58.194Z,6.83
2023-02-12T09:14:26.504Z,7.90
2023-02-12T09:16:57.379Z,7.50
2023-02-12T09:19:27.220Z,7.43
2023-02-12T09:21:57.224Z,8.20
2023-02-12T09:24:27.640Z,8.13
2023-02-12T09:26:57.871Z,8.10
2023-02-12T09:29:26.318Z,9.03
2023-02-12T09:31:54.908Z,8.17
2023-02-12T09:34:23.457Z,8.33
2023-02-12T09:36:51.803Z,7.90
2023-02-12T09:39:20.403Z,8.80
2023-02-12T09:42:31.570Z,6.83
2023-02-12T09:45:09.392Z,7.27
2023-02-12T09:47:49.644Z,7.40
2023-02-12T09:50:44.633Z,8.13
2023-02-12T09:53:15.907Z,7.87
2023-02-12T09:55:45.866Z,7.90
2023-02-12T09:58:19.349Z,8.37
2023-02-12T10:00:47.848Z,8.83
2023-02-12T10:03:18.720Z,7.73
2023-02-12T10:05:52.950Z,7.67
2023-02-12T10:09:06.315Z,7.40
2023-02-12T10:12:01.679Z,7.93
2023-02-12T10:15:06.684Z,8.00
2023-02-12T10:17:46.120Z,8.20
2023-02-12T10:20:38.485Z,8.27
2023-02-12T10:23:45.880Z,8.67
2023-02-12T10:26:23.779Z,9.20
2023-02-12T10:28:53.997Z,9.20
2023-02-12T10:31:31.935Z,7.73
2023-02-12T10:34:00.459Z,8.07
2023-02-12T10:36:43.398Z,8.67
2023-02-12T10:39:22.672Z,8.67
2023-02-12T10:42:00.018Z,7.63
2023-02-12T10:44:28.922Z,7.87
2023-02-12T10:46:58.824Z,8.23
2023-02-12T10:49:27.546Z,9.10
2023-02-12T10:52:10.822Z,8.23
2023-02-12T10:54:43.126Z,8.27
2023-02-12T10:57:22.793Z,7.60
2023-02-12T10:59:54.043Z,7.40
2023-02-12T11:02:28.371Z,7.87
2023-02-12T11:04:59.215Z,8.00
2023-02-12T11:07:29.484Z,8.97
2023-02-12T11:09:58.873Z,8.33
2023-02-12T11:12:36.856Z,8.00
2023-02-12T11:15:15.446Z,8.90
2023-02-12T11:17:56.716Z,8.37
2023-02-12T11:20:29.215Z,9.40
2023-02-12T11:23:00.612Z,8.60
2023-02-12T11:25:32.063Z,8.97
2023-02-12T11:28:04.327Z,8.37
2023-02-12T11:30:34.274Z,8.50
2023-02-12T11:33:29.751Z,8.80
2023-02-12T11:36:04.450Z,9.57
2023-02-12T11:38:39.907Z,9.50
2023-02-12T11:41:25.729Z,8.97
2023-02-12T11:43:55.423Z,10.37
2023-02-12T11:46:27.790Z,9.37
2023-02-12T11:49:00.846Z,8.90
2023-02-12T11:51:32.601Z,9.43
2023-02-12T11:54:04.234Z,9.63
2023-02-12T11:56:45.153Z,11.10
2023-02-12T11:59:30.791Z,10.27
2023-02-12T12:02:05.543Z,9.40
2023-02-12T12:04:37.248Z,11.33
2023-02-12T12:07:16.114Z,12.50
2023-02-12T12:09:50.424Z,11.10
2023-02-12T12:12:26.651Z,12.20
2023-02-12T12:15:18.992Z,12.17
2023-02-12T12:18:11.340Z,10.80
2023-02-12T12:20:48.545Z,12.50
2023-02-12T12:23:21.931Z,12.13
2023-02-12T12:25:53.886Z,12.70
2023-02-12T12:28:36.069Z,12.27
2023-02-12T12:31:11.917Z,15.33
2023-02-12T12:33:45.761Z,13.27
2023-02-12T12:36:52.199Z,13.53
2023-02-12T12:39:33.036Z,13.80
2023-02-12T12:42:38.520Z,13.20
2023-02-12T12:45:35.663Z,13.20
2023-02-12T12:48:19.020Z,13.10
2023-02-12T12:51:19.411Z,12.57
2023-02-12T12:54:18.941Z,13.30
2023-02-12T12:56:59.615Z,12.57
2023-02-12T12:59:54.037Z,12.63
2023-02-12T13:03:17.538Z,11.40
2023-02-12T13:06:15.993Z,11.90
2023-02-12T13:09:07.153Z,11.70
2023-02-12T13:11:49.099Z,11.80
2023-02-12T13:14:32.437Z,12.13
2023-02-12T13:17:10.826Z,13.50
2023-02-12T13:19:54.312Z,12.57
2023-02-12T13:22:31.484Z,13.33
2023-02-12T13:25:08.113Z,14.37
2023-02-12T13:27:42.358Z,13.93
2023-02-12T13:30:23.328Z,13.37
2023-02-12T13:33:05.945Z,12.50
2023-02-12T13:35:39.106Z,13.20
2023-02-12T13:38:09.711Z,12.80
2023-02-12T13:40:38.604Z,13.80
2023-02-12T13:43:23.488Z,12.23
2023-02-12T13:46:01.888Z,11.60
2023-02-12T13:48:52.673Z,12.90
2023-02-12T13:51:37.449Z,13.50
2023-02-12T13:54:30.977Z,13.23
2023-02-12T13:57:02.480Z,12.60
2023-02-12T13:59:48.053Z,13.90
2023-02-12T14:02:53.526Z,13.20
2023-02-12T14:05:32.715Z,12.57
2023-02-12T14:08:06.055Z,13.20
2023-02-12T14:10:41.462Z,12.53
2023-02-12T14:13:24.015Z,12.20
2023-02-12T14:15:57.918Z,12.57
2023-02-12T14:18:32.199Z,12.97
2023-02-12T14:21:44.170Z,13.20
2023-02-12T14:24:53.047Z,12.53
2023-02-12T14:27:31.451Z,11.60
2023-02-12T14:30:40.295Z,12.20
2023-02-12T14:33:27.015Z,58.80
2023-02-12T14:36:40.772Z,30.20
2023-02-12T14:39:30.789Z,13.93
2023-02-12T14:42:45.824Z,12.50
2023-02-12T14:45:32.567Z,13.27
2023-02-12T14:48:01.027Z,12.40
2023-02-12T14:50:50.139Z,13.30
2023-02-12T14:53:31.124Z,12.30
2023-02-12T14:56:01.016Z,12.37
2023-02-12T14:58:31.576Z,14.10
2023-02-12T15:01:03.600Z,14.47
2023-02-12T15:03:43.202Z,12.70
2023-02-12T15:06:18.878Z,15.20
2023-02-12T15:08:53.904Z,12.30
2023-02-12T15:11:34.988Z,12.03
2023-02-12T15:14:07.418Z,12.30
2023-02-12T15:16:47.017Z,12.33
2023-02-12T15:19:35.539Z,11.37
2023-02-12T15:22:05.416Z,12.57
2023-02-12T15:24:33.865Z,13.00
2023-02-12T15:27:02.316Z,12.70
2023-02-12T15:29:38.391Z,12.73
2023-02-12T15:32:10.387Z,12.27
2023-02-12T15:34:41.859Z,12.27
2023-02-12T15:37:22.222Z,13.20
2023-02-12T15:39:53.499Z,12.03
2023-02-12T15:42:30.774Z,12.67
2023-02-12T15:45:19.933Z,12.57
2023-02-12T15:48:01.581Z,14.10
2023-02-12T15:50:32.438Z,14.13
2023-02-12T15:53:02.666Z,13.10
2023-02-12T15:55:39.645Z,13.13
2023-02-12T15:58:23.788Z,13.10
2023-02-12T16:00:54.095Z,12.80
2023-02-12T16:03:25.503Z,13.57
2023-02-12T16:05:58.808Z,13.47
2023-02-12T16:08:28.872Z,12.90
2023-02-12T16:10:57.948Z,13.90
2023-02-12T16:13:33.084Z,14.67
2023-02-12T16:16:23.985Z,12.53
2023-02-12T16:19:09.127Z,14.00
2023-02-12T16:21:40.061Z,14.70
2023-02-12T16:24:28.571Z,13.13
2023-02-12T16:26:58.914Z,11.13
2023-02-12T16:29:27.755Z,13.93
2023-02-12T16:32:01.116Z,12.40
2023-02-12T16:34:39.067Z,14.60
2023-02-12T16:37:49.066Z,13.30
2023-02-12T16:40:37.537Z,14.17
2023-02-12T16:43:27.922Z,13.53
2023-02-12T16:46:07.194Z,14.60
2023-02-12T16:48:41.361Z,13.67
2023-02-12T16:51:23.582Z,13.40
2023-02-12T16:53:54.099Z,14.40
2023-02-12T16:56:26.353Z,12.87
2023-02-12T16:58:57.971Z,13.47
2023-02-12T17:01:30.042Z,13.60
2023-02-12T17:04:00.564Z,13.20
2023-02-12T17:06:32.208Z,11.60
2023-02-12T17:09:01.453Z,14.30
2023-02-12T17:11:31.686Z,15.63
2023-02-12T17:14:00.053Z,12.60
2023-02-12T17:16:31.315Z,13.37
2023-02-12T17:19:01.004Z,12.90
2023-02-12T17:21:37.817Z,14.37
2023-02-12T17:24:07.538Z,14.77
2023-02-12T17:26:37.293Z,16.53
2023-02-12T17:29:06.601Z,15.90
2023-02-12T17:31:36.613Z,14.40
2023-02-12T17:34:06.264Z,13.80
2023-02-12T17:36:35.944Z,14.37
2023-02-12T17:39:06.759Z,15.60
2023-02-12T17:41:36.898Z,14.23
2023-02-12T17:44:05.722Z,15.60
2023-02-12T17:46:34.798Z,13.27
2023-02-12T17:49:04.658Z,15.00
2023-02-12T17:51:33.221Z,14.40
2023-02-12T17:54:01.583Z,13.90
2023-02-12T17:56:30.059Z,14.50
2023-02-12T17:58:59.947Z,16.60
2023-02-12T18:01:29.038Z,15.60
2023-02-12T18:03:59.760Z,15.27
2023-02-12T18:06:31.193Z,14.20
2023-02-12T18:09:01.734Z,15.67
2023-02-12T18:11:32.138Z,16.13
2023-02-12T18:14:02.587Z,16.70
2023-02-12T18:16:35.715Z,16.50
2023-02-12T18:19:05.754Z,18.00
2023-02-12T18:21:35.035Z,15.40
2023-02-12T18:24:03.739Z,15.60
2023-02-12T18:26:32.520Z,16.53
2023-02-12T18:29:02.889Z,15.80
2023-02-12T18:31:32.117Z,15.50
2023-02-12T18:34:00.563Z,15.30
2023-02-12T18:36:28.939Z,17.43
2023-02-12T18:38:57.652Z,15.37
2023-02-12T18:41:30.091Z,16.87
2023-02-12T18:44:00.920Z,15.50
2023-02-12T18:46:32.070Z,15.30
2023-02-12T18:49:01.663Z,14.57
2023-02-12T18:51:33.762Z,17.27
2023-02-12T18:54:07.302Z,16.37
2023-02-12T18:56:38.060Z,15.73
2023-02-12T18:59:09.550Z,15.60
2023-02-12T19:01:38.199Z,16.07
2023-02-12T19:04:09.365Z,15.23
2023-02-12T19:06:42.773Z,15.43
2023-02-12T19:09:16.505Z,16.33
2023-02-12T19:11:46.690Z,15.30
2023-02-12T19:14:18.111Z,15.43
2023-02-12T19:16:47.707Z,15.97
2023-02-12T19:19:17.819Z,15.80
2023-02-12T19:21:46.419Z,17.90
2023-02-12T19:24:16.871Z,18.20
2023-02-12T19:26:46.059Z,16.23
2023-02-12T19:29:16.407Z,15.30
2023-02-12T19:31:47.931Z,16.20
2023-02-12T19:34:19.660Z,15.63
2023-02-12T19:36:50.538Z,16.43
2023-02-12T19:39:21.779Z,16.83
2023-02-12T19:41:51.174Z,16.40
2023-02-12T19:44:24.687Z,16.87
2023-02-12T19:46:54.931Z,16.20
2023-02-12T19:49:26.775Z,15.60
2023-02-12T19:51:55.671Z,17.63
2023-02-12T19:54:25.348Z,17.40
2023-02-12T19:56:55.219Z,16.53
2023-02-12T19:59:26.917Z,16.97
2023-02-12T20:01:56.529Z,16.73
2023-02-12T20:04:25.989Z,16.70
2023-02-12T20:06:54.741Z,14.70
2023-02-12T20:09:24.227Z,15.80
2023-02-12T20:11:53.376Z,15.40
2023-02-12T20:14:22.938Z,17.20
2023-02-12T20:16:56.276Z,16.23
2023-02-12T20:19:27.766Z,16.90
2023-02-12T20:21:57.490Z,16.60
2023-02-12T20:24:29.652Z,17.13
2023-02-12T20:27:00.185Z,17.10
2023-02-12T20:29:28.881Z,16.87
2023-02-12T20:31:58.906Z,16.27
2023-02-12T20:34:28.174Z,17.03
2023-02-12T20:36:56.587Z,18.30
2023-02-12T20:39:24.925Z,16.50
2023-02-12T20:41:53.231Z,19.77
2023-02-12T20:44:22.960Z,14.80
2023-02-12T20:46:56.520Z,15.53
2023-02-12T20:49:27.879Z,15.50
2023-02-12T20:51:56.365Z,16.87
2023-02-12T20:54:25.059Z,15.83
2023-02-12T20:56:53.836Z,16.80
2023-02-12T20:59:22.265Z,17.20
2023-02-12T21:01:51.031Z,15.67
2023-02-12T21:04:20.820Z,16.50
2023-02-12T21:06:50.696Z,16.83
2023-02-12T21:09:19.917Z,17.27
2023-02-12T21:11:49.201Z,14.77
2023-02-12T21:14:22.369Z,15.87
2023-02-12T21:16:52.437Z,15.80
2023-02-12T21:19:20.953Z,16.10
2023-02-12T21:21:50.708Z,16.50
2023-02-12T21:24:22.982Z,15.63
2023-02-12T21:26:52.194Z,15.00
2023-02-12T21:29:21.208Z,16.80
2023-02-12T21:31:51.762Z,16.50
2023-02-12T21:34:22.960Z,16.93
2023-02-12T21:36:55.997Z,17.33
2023-02-12T21:39:29.575Z,16.60
2023-02-12T21:42:01.629Z,15.67
2023-02-12T21:44:30.998Z,17.47
2023-02-12T21:46:59.732Z,16.30
2023-02-12T21:49:28.958Z,17.70
2023-02-12T21:52:02.046Z,16.70
2023-02-12T21:54:32.026Z,16.10
2023-02-12T21:57:01.744Z,15.33
2023-02-12T21:59:32.343Z,16.77
2023-02-12T22:02:01.865Z,16.60
2023-02-12T22:04:30.541Z,16.97
2023-02-12T22:07:03.398Z,16.90
2023-02-12T22:09:32.219Z,15.57
2023-02-12T22:12:00.572Z,15.93
2023-02-12T22:14:28.939Z,16.00
2023-02-12T22:16:57.338Z,16.60
2023-02-12T22:19:25.755Z,17.07
2023-02-12T22:21:54.080Z,15.70
2023-02-12T22:24:23.990Z,15.03
2023-02-12T22:26:52.417Z,16.77
2023-02-12T22:29:22.894Z,14.03
2023-02-12T22:31:52.005Z,15.93
2023-02-12T22:34:20.698Z,15.17
2023-02-12T22:36:49.695Z,17.67
2023-02-12T22:39:18.669Z,14.97
2023-02-12T22:41:48.532Z,17.30
2023-02-12T22:44:20.751Z,17.53
2023-02-12T22:46:50.139Z,15.60
2023-02-12T22:49:18.820Z,15.33
2023-02-12T22:51:47.287Z,15.80
2023-02-12T22:54:18.090Z,17.93
2023-02-12T22:56:51.901Z,16.73
2023-02-12T22:59:20.451Z,16.93
2023-02-12T23:01:48.924Z,17.77
2023-02-12T23:04:19.279Z,15.83
2023-02-12T23:06:48.190Z,15.83
2023-02-12T23:09:19.389Z,14.57
2023-02-12T23:11:49.580Z,17.10
2023-02-12T23:14:18.352Z,15.33
2023-02-12T23:16:47.720Z,17.20
2023-02-12T23:19:16.599Z,16.37
2023-02-12T23:21:45.010Z,16.70
2023-02-12T23:24:15.414Z,16.23
2023-02-12T23:26:44.003Z,15.57
2023-02-12T23:29:13.825Z,17.30
2023-02-12T23:31:42.302Z,15.53
2023-02-12T23:34:10.879Z,17.17
2023-02-12T23:36:39.257Z,16.30
2023-02-12T23:39:09.501Z,18.30
2023-02-12T23:41:37.912Z,17.77
2023-02-12T23:44:06.946Z,16.53
2023-02-12T23:46:37.052Z,16.20
2023-02-12T23:49:05.562Z,16.87
2023-02-12T23:51:34.757Z,17.33
2023-02-12T23:54:03.194Z,17.90
2023-02-12T23:56:31.657Z,16.30
2023-02-12T23:59:00.028Z,16.83
